createdAt,value
2022-08-17T00:00:00.412Z,97.70
2022-08-17T00:02:27.595Z,98.30
2022-08-17T00:04:55.650Z,98.00
2022-08-17T00:07:23.000Z,99.50
2022-08-17T00:09:49.941Z,99.90
2022-08-17T00:12:40.945Z,99.90
2022-08-17T00:15:05.837Z,99.90
2022-08-17T00:17:35.759Z,99.90
2022-08-17T00:20:04.224Z,99.90
2022-08-17T00:22:35.650Z,99.90
2022-08-17T00:25:07.353Z,99.90
2022-08-17T00:27:35.848Z,99.90
2022-08-17T00:30:04.071Z,99.90
2022-08-17T00:33:14.779Z,99.90
2022-08-17T00:35:27.818Z,99.90
2022-08-17T00:37:54.737Z,99.90
2022-08-17T00:40:21.772Z,99.90
2022-08-17T00:42:53.451Z,99.90
2022-08-17T00:45:21.030Z,99.90
2022-08-17T00:47:48.045Z,99.90
2022-08-17T00:50:17.401Z,99.90
2022-08-17T00:52:52.591Z,99.90
2022-08-17T00:55:20.093Z,99.90
2022-08-17T00:57:54.757Z,99.90
2022-08-17T01:00:30.238Z,99.90
2022-08-17T01:03:12.100Z,99.90
2022-08-17T01:05:42.482Z,99.90
2022-08-17T01:08:12.994Z,99.90
2022-08-17T01:10:58.921Z,99.90
2022-08-17T01:13:39.811Z,99.90
2022-08-17T01:16:24.496Z,99.90
2022-08-17T01:18:54.898Z,99.90
2022-08-17T01:21:33.403Z,99.90
2022-08-17T01:24:01.239Z,99.90
2022-08-17T01:26:29.780Z,99.90
2022-08-17T01:28:56.868Z,99.90
2022-08-17T01:31:30.314Z,99.90
2022-08-17T01:34:00.566Z,99.90
2022-08-17T01:36:28.959Z,99.90
2022-08-17T01:38:55.937Z,99.90
2022-08-17T01:41:24.459Z,99.90
2022-08-17T01:43:59.211Z,99.90
2022-08-17T01:46:31.023Z,99.90
2022-08-17T01:48:58.587Z,99.90
2022-08-17T01:51:32.916Z,99.90
2022-08-17T01:54:08.578Z,99.90
2022-08-17T01:56:38.783Z,99.90
2022-08-17T01:59:06.450Z,99.90
2022-08-17T02:01:34.753Z,99.90
2022-08-17T02:04:02.274Z,99.90
2022-08-17T02:06:45.135Z,99.90
2022-08-17T02:09:29.494Z,99.90
2022-08-17T02:11:58.832Z,99.90
2022-08-17T02:14:26.398Z,99.90
2022-08-17T02:16:54.026Z,99.90
2022-08-17T02:19:22.037Z,99.90
2022-08-17T02:21:51.257Z,99.90
2022-08-17T02:24:59.778Z,99.90
2022-08-17T02:27:10.109Z,99.90
2022-08-17T02:29:37.462Z,99.90
2022-08-17T02:32:05.039Z,99.90
2022-08-17T02:34:32.783Z,99.90
2022-08-17T02:36:59.804Z,99.90
2022-08-17T02:39:26.814Z,99.90
2022-08-17T02:42:01.921Z,99.90
2022-08-17T02:44:38.845Z,99.90
2022-08-17T02:47:08.674Z,99.90
2022-08-17T02:49:35.957Z,99.90
2022-08-17T02:52:07.623Z,99.90
2022-08-17T02:54:41.251Z,99.90
2022-08-17T02:57:10.673Z,99.90
2022-08-17T02:59:39.373Z,99.90
2022-08-17T03:02:08.105Z,99.90
2022-08-17T03:04:35.548Z,99.90
2022-08-17T03:07:03.513Z,99.90
2022-08-17T03:09:30.718Z,99.90
2022-08-17T03:12:08.419Z,99.90
2022-08-17T03:14:41.768Z,99.90
2022-08-17T03:17:10.732Z,99.90
2022-08-17T03:19:42.916Z,99.90
2022-08-17T03:22:37.197Z,99.90
2022-08-17T03:24:57.938Z,99.90
2022-08-17T03:27:24.799Z,99.90
2022-08-17T03:29:51.650Z,99.90
2022-08-17T03:32:20.736Z,99.90
2022-08-17T03:34:48.138Z,99.90
2022-08-17T03:37:14.983Z,99.90
2022-08-17T03:39:42.888Z,99.90
2022-08-17T03:42:31.815Z,99.90
2022-08-17T03:45:00.895Z,99.90
2022-08-17T03:47:47.383Z,99.90
2022-08-17T03:50:33.680Z,99.90
2022-08-17T03:53:21.384Z,99.90
2022-08-17T03:56:06.752Z,99.90
2022-08-17T03:58:34.041Z,99.90
2022-08-17T04:01:01.478Z,99.90
2022-08-17T04:03:28.762Z,99.90
2022-08-17T04:05:55.927Z,99.90
2022-08-17T04:08:23.031Z,99.90
2022-08-17T04:10:50.083Z,99.90
2022-08-17T04:13:24.834Z,99.90
2022-08-17T04:15:53.036Z,99.90
2022-08-17T04:18:20.009Z,99.90
2022-08-17T04:20:47.175Z,99.90
2022-08-17T04:23:17.916Z,99.90
2022-08-17T04:25:50.448Z,99.90
2022-08-17T04:28:20.955Z,99.90
2022-08-17T04:30:48.160Z,99.90
2022-08-17T04:33:21.922Z,99.90
2022-08-17T04:35:52.526Z,99.90
2022-08-17T04:38:22.289Z,99.90
2022-08-17T04:41:08.273Z,99.90
2022-08-17T04:43:36.992Z,99.90
2022-08-17T04:46:07.447Z,99.90
2022-08-17T04:48:37.670Z,99.90
2022-08-17T04:51:16.755Z,99.90
2022-08-17T04:53:45.906Z,99.90
2022-08-17T04:56:21.131Z,99.90
2022-08-17T04:58:51.879Z,99.90
2022-08-17T05:01:23.581Z,99.90
2022-08-17T05:03:59.501Z,99.90
2022-08-17T05:06:28.331Z,99.90
2022-08-17T05:08:56.492Z,99.90
2022-08-17T05:11:26.277Z,99.90
2022-08-17T05:13:54.839Z,99.90
2022-08-17T05:16:23.612Z,99.90
2022-08-17T05:18:51.142Z,99.90
2022-08-17T05:21:19.528Z,99.90
2022-08-17T05:23:47.185Z,99.90
2022-08-17T05:26:26.803Z,99.90
2022-08-17T05:28:58.428Z,99.90
2022-08-17T05:31:28.298Z,99.90
2022-08-17T05:33:55.254Z,99.90
2022-08-17T05:36:41.564Z,99.90
2022-08-17T05:39:09.125Z,99.90
2022-08-17T05:41:43.090Z,99.90
2022-08-17T05:44:10.059Z,99.90
2022-08-17T05:46:41.053Z,99.90
2022-08-17T05:50:49.740Z,99.90
2022-08-17T05:53:40.883Z,99.90
2022-08-17T05:56:29.460Z,99.90
2022-08-17T05:59:34.913Z,99.90
2022-08-17T06:02:23.514Z,99.90
2022-08-17T06:05:16.984Z,99.90
2022-08-17T06:08:08.832Z,99.90
2022-08-17T06:10:53.941Z,99.90
2022-08-17T06:13:57.030Z,99.90
2022-08-17T06:16:34.442Z,99.90
2022-08-17T06:19:12.325Z,99.90
2022-08-17T06:21:43.740Z,99.90
2022-08-17T06:24:34.904Z,99.90
2022-08-17T06:27:12.713Z,99.90
2022-08-17T06:29:48.653Z,99.90
2022-08-17T06:32:17.240Z,99.90
2022-08-17T06:34:45.961Z,99.90
2022-08-17T06:37:42.106Z,99.90
2022-08-17T06:40:30.707Z,99.90
2022-08-17T06:43:34.188Z,99.80
2022-08-17T06:46:13.580Z,98.70
2022-08-17T06:49:11.631Z,98.30
2022-08-17T06:51:43.325Z,99.20
2022-08-17T06:54:24.051Z,99.10
2022-08-17T06:57:06.537Z,98.70
2022-08-17T06:59:58.078Z,99.10
2022-08-17T07:02:51.960Z,99.20
2022-08-17T07:05:24.411Z,99.30
2022-08-17T07:08:14.827Z,99.10
2022-08-17T07:10:50.843Z,98.90
2022-08-17T07:13:52.816Z,98.90
2022-08-17T07:16:46.867Z,99.00
2022-08-17T07:19:19.833Z,98.80
2022-08-17T07:21:55.084Z,98.50
2022-08-17T07:24:43.332Z,98.50
2022-08-17T07:27:12.021Z,98.60
2022-08-17T07:29:49.651Z,98.60
2022-08-17T07:32:22.942Z,98.60
2022-08-17T07:35:15.393Z,97.90
2022-08-17T07:37:54.075Z,96.90
2022-08-17T07:40:30.864Z,96.60
2022-08-17T07:43:11.591Z,96.50
2022-08-17T07:46:34.581Z,95.80
2022-08-17T07:49:03.303Z,95.40
2022-08-17T07:51:37.450Z,95.40
2022-08-17T07:54:23.565Z,95.20
2022-08-17T07:56:57.842Z,95.30
2022-08-17T07:59:27.234Z,94.70
2022-08-17T08:02:03.848Z,94.60
2022-08-17T08:07:32.148Z,93.80
2022-08-17T08:10:29.952Z,94.10
2022-08-17T08:13:23.573Z,94.00
2022-08-17T08:15:54.775Z,93.50
2022-08-17T08:18:45.927Z,93.00
2022-08-17T08:21:33.544Z,93.10
2022-08-17T08:24:20.786Z,93.00
2022-08-17T08:27:11.473Z,92.60
2022-08-17T08:30:02.980Z,92.50
2022-08-17T08:32:51.163Z,92.80
2022-08-17T08:35:44.705Z,93.00
2022-08-17T08:38:30.889Z,92.40
2022-08-17T08:41:04.846Z,92.80
2022-08-17T08:43:41.556Z,93.10
2022-08-17T08:46:44.090Z,93.60
2022-08-17T08:50:01.427Z,93.50
2022-08-17T08:52:40.713Z,93.60
2022-08-17T08:55:19.812Z,93.20
2022-08-17T08:57:54.297Z,93.50
2022-08-17T09:00:24.833Z,93.70
2022-08-17T09:03:03.033Z,93.60
2022-08-17T09:05:57.581Z,93.70
2022-08-17T09:09:11.751Z,93.00
2022-08-17T09:12:02.963Z,92.60
2022-08-17T09:14:56.817Z,92.70
2022-08-17T09:17:35.885Z,91.90
2022-08-17T09:20:27.539Z,92.60
2022-08-17T09:23:34.823Z,92.70
2022-08-17T09:26:17.159Z,92.40
2022-08-17T09:28:54.413Z,93.00
2022-08-17T09:31:46.403Z,92.90
2022-08-17T09:34:19.878Z,92.70
2022-08-17T09:37:03.532Z,91.90
2022-08-17T09:39:41.924Z,91.90
2022-08-17T09:42:33.122Z,91.70
2022-08-17T09:45:26.925Z,92.10
2022-08-17T09:48:12.597Z,91.70
2022-08-17T09:51:01.597Z,90.90
2022-08-17T09:53:33.215Z,90.80
2022-08-17T09:56:28.216Z,91.40
2022-08-17T09:59:38.203Z,91.20
2022-08-17T10:02:34.619Z,91.40
2022-08-17T10:05:13.662Z,91.50
2022-08-17T10:07:56.257Z,91.50
2022-08-17T10:10:33.113Z,91.50
2022-08-17T10:13:29.291Z,90.40
2022-08-17T10:16:10.886Z,90.60
2022-08-17T10:19:02.843Z,89.60
2022-08-17T10:22:00.952Z,88.60
2022-08-17T10:25:20.956Z,88.80
2022-08-17T10:27:49.095Z,87.70
2022-08-17T10:30:23.222Z,89.00
2022-08-17T10:32:55.033Z,88.70
2022-08-17T10:35:50.702Z,89.30
2022-08-17T10:38:57.733Z,88.70
2022-08-17T10:41:31.332Z,89.40
2022-08-17T10:44:38.729Z,88.50
2022-08-17T10:47:11.891Z,87.10
2022-08-17T10:49:47.904Z,85.70
2022-08-17T10:52:21.987Z,86.70
2022-08-17T10:54:51.767Z,87.80
2022-08-17T10:57:34.131Z,87.20
2022-08-17T11:00:08.380Z,86.90
2022-08-17T11:02:52.014Z,87.20
2022-08-17T11:05:43.529Z,86.10
2022-08-17T11:08:22.995Z,86.30
2022-08-17T11:11:14.758Z,86.00
2022-08-17T11:14:08.989Z,86.90
2022-08-17T11:17:05.091Z,87.00
2022-08-17T11:20:01.189Z,86.90
2022-08-17T11:23:01.768Z,86.60
2022-08-17T11:25:47.321Z,86.20
2022-08-17T11:28:16.888Z,86.00
2022-08-17T11:30:53.972Z,86.50
2022-08-17T11:33:29.967Z,87.20
2022-08-17T11:36:06.419Z,86.60
2022-08-17T11:38:52.502Z,86.20
2022-08-17T11:41:27.437Z,87.60
2022-08-17T11:44:17.102Z,90.30
2022-08-17T11:47:29.711Z,90.80
2022-08-17T11:50:40.389Z,91.30
2022-08-17T11:53:08.891Z,91.50
2022-08-17T11:55:40.516Z,91.10
2022-08-17T11:58:31.317Z,91.10
2022-08-17T12:00:58.149Z,89.40
2022-08-17T12:03:31.873Z,89.00
2022-08-17T12:06:30.486Z,88.50
2022-08-17T12:09:15.802Z,87.60
2022-08-17T12:12:11.787Z,85.40
2022-08-17T12:17:42.823Z,84.60
2022-08-17T12:20:40.963Z,84.40
2022-08-17T12:23:39.512Z,85.00
2022-08-17T12:26:21.464Z,81.10
2022-08-17T12:28:53.143Z,82.80
2022-08-17T12:31:25.388Z,81.50
2022-08-17T12:33:53.097Z,79.40
2022-08-17T12:36:24.828Z,79.40
2022-08-17T12:39:00.207Z,78.00
2022-08-17T12:41:44.530Z,79.10
2022-08-17T12:44:12.182Z,80.20
2022-08-17T12:46:55.510Z,78.00
2022-08-17T12:49:35.559Z,77.90
2022-08-17T12:52:08.735Z,78.30
2022-08-17T12:54:42.020Z,77.10
2022-08-17T12:57:33.286Z,75.90
2022-08-17T13:00:10.794Z,75.40
2022-08-17T13:02:52.266Z,74.10
2022-08-17T13:05:28.359Z,72.60
2022-08-17T13:07:58.303Z,72.60
2022-08-17T13:10:33.244Z,69.90
2022-08-17T13:13:17.610Z,69.50
2022-08-17T13:15:54.977Z,69.70
2022-08-17T13:18:39.150Z,69.70
2022-08-17T13:21:12.548Z,68.30
2022-08-17T13:23:39.412Z,68.20
2022-08-17T13:26:16.199Z,67.90
2022-08-17T13:28:51.661Z,67.70
2022-08-17T13:31:30.384Z,65.60
2022-08-17T13:34:18.824Z,65.50
2022-08-17T13:36:46.926Z,66.40
2022-08-17T13:39:28.464Z,65.70
2022-08-17T13:41:56.111Z,65.20
2022-08-17T13:44:39.222Z,67.20
2022-08-17T13:47:17.519Z,66.10
2022-08-17T13:49:48.957Z,67.20
2022-08-17T13:52:41.615Z,68.40
2022-08-17T13:55:20.575Z,66.30
2022-08-17T13:58:06.546Z,65.00
2022-08-17T14:00:36.443Z,64.80
2022-08-17T14:03:04.744Z,65.20
2022-08-17T14:05:32.399Z,65.20
2022-08-17T14:08:06.683Z,65.30
2022-08-17T14:10:36.607Z,66.50
2022-08-17T14:13:04.561Z,65.40
2022-08-17T14:15:55.764Z,65.50
2022-08-17T14:18:31.186Z,66.30
2022-08-17T14:21:08.387Z,65.80
2022-08-17T14:23:36.757Z,66.00
2022-08-17T14:26:04.334Z,65.10
2022-08-17T14:28:32.038Z,65.70
2022-08-17T14:31:00.734Z,65.10
2022-08-17T14:33:28.945Z,64.70
2022-08-17T14:35:56.001Z,64.60
2022-08-17T14:38:23.243Z,63.90
2022-08-17T14:40:50.539Z,63.70
2022-08-17T14:43:17.853Z,63.20
2022-08-17T14:45:44.925Z,65.40
2022-08-17T14:48:11.986Z,65.10
2022-08-17T14:50:42.007Z,64.40
2022-08-17T14:53:11.907Z,63.70
2022-08-17T14:55:40.606Z,63.60
2022-08-17T14:58:08.991Z,63.30
2022-08-17T15:00:36.529Z,62.70
2022-08-17T15:03:04.508Z,63.80
2022-08-17T15:05:36.457Z,63.20
2022-08-17T15:08:04.800Z,62.40
2022-08-17T15:10:32.159Z,62.80
2022-08-17T15:12:59.447Z,62.20
2022-08-17T15:15:26.832Z,61.80
2022-08-17T15:17:53.814Z,62.70
2022-08-17T15:20:27.714Z,63.50
2022-08-17T15:22:56.304Z,61.70
2022-08-17T15:25:28.511Z,61.90
2022-08-17T15:27:56.040Z,61.40
2022-08-17T15:30:24.010Z,62.50
2022-08-17T15:32:54.939Z,60.40
2022-08-17T15:35:27.514Z,60.10
2022-08-17T15:37:56.694Z,60.50
2022-08-17T15:40:23.750Z,58.00
2022-08-17T15:42:51.261Z,60.20
2022-08-17T15:45:24.591Z,60.20
2022-08-17T15:47:52.664Z,59.80
2022-08-17T15:50:19.811Z,60.50
2022-08-17T15:52:47.602Z,61.50
2022-08-17T15:55:15.288Z,62.00
2022-08-17T15:57:42.154Z,62.20
2022-08-17T16:00:10.318Z,62.70
2022-08-17T16:03:20.200Z,63.50
2022-08-17T16:05:28.163Z,63.80
2022-08-17T16:07:59.622Z,63.90
2022-08-17T16:10:34.794Z,64.40
2022-08-17T16:13:02.980Z,65.10
2022-08-17T16:15:31.562Z,65.70
2022-08-17T16:17:58.528Z,65.80
2022-08-17T16:20:25.390Z,66.00
2022-08-17T16:22:52.468Z,66.20
2022-08-17T16:25:48.454Z,66.70
2022-08-17T16:28:12.523Z,66.80
2022-08-17T16:30:39.674Z,67.80
2022-08-17T16:33:06.946Z,68.00
2022-08-17T16:35:33.980Z,68.60
2022-08-17T16:38:01.232Z,68.00
2022-08-17T16:40:33.125Z,68.20
2022-08-17T16:43:03.769Z,68.50
2022-08-17T16:45:36.549Z,69.00
2022-08-17T16:48:04.194Z,68.50
2022-08-17T16:50:32.365Z,68.80
2022-08-17T16:53:09.111Z,69.30
2022-08-17T16:55:36.205Z,69.30
2022-08-17T16:58:05.608Z,69.50
2022-08-17T17:00:33.865Z,69.50
2022-08-17T17:03:19.578Z,69.50
2022-08-17T17:06:13.752Z,69.50
2022-08-17T17:08:52.499Z,69.60
2022-08-17T17:11:31.302Z,69.70
2022-08-17T17:14:02.171Z,69.20
2022-08-17T17:16:28.898Z,69.80
2022-08-17T17:19:16.516Z,69.70
2022-08-17T17:21:59.127Z,69.90
2022-08-17T17:24:41.116Z,69.70
2022-08-17T17:27:35.629Z,70.10
2022-08-17T17:30:02.350Z,70.30
2022-08-17T17:32:52.430Z,70.80
2022-08-17T17:35:29.007Z,71.00
2022-08-17T17:37:58.134Z,71.40
2022-08-17T17:40:35.495Z,71.40
2022-08-17T17:43:34.921Z,71.30
2022-08-17T17:46:26.641Z,71.60
2022-08-17T17:48:50.910Z,71.60
2022-08-17T17:52:06.442Z,71.50
2022-08-17T17:54:18.230Z,71.60
2022-08-17T17:57:03.214Z,71.80
2022-08-17T17:59:44.175Z,72.50
2022-08-17T18:02:53.099Z,71.90
2022-08-17T18:05:32.394Z,72.00
2022-08-17T18:08:36.288Z,71.70
2022-08-17T18:11:33.062Z,71.80
2022-08-17T18:14:26.870Z,71.90
2022-08-17T18:16:56.604Z,71.90
2022-08-17T18:19:25.784Z,71.70
2022-08-17T18:22:00.717Z,71.60
2022-08-17T18:24:37.926Z,71.80
2022-08-17T18:27:21.058Z,72.30
2022-08-17T18:29:48.648Z,72.80
2022-08-17T18:32:20.820Z,72.80
2022-08-17T18:34:54.557Z,72.70
2022-08-17T18:37:32.880Z,72.50
2022-08-17T18:40:11.094Z,72.60
2022-08-17T18:42:38.789Z,72.60
2022-08-17T18:45:05.861Z,72.30
2022-08-17T18:47:32.652Z,73.20
2022-08-17T18:50:22.685Z,73.30
2022-08-17T18:52:50.636Z,74.50
2022-08-17T18:55:22.959Z,74.90
2022-08-17T18:57:57.468Z,75.40
2022-08-17T19:00:30.269Z,76.10
2022-08-17T19:03:16.849Z,76.60
2022-08-17T19:05:47.546Z,76.80
2022-08-17T19:08:35.010Z,77.10
2022-08-17T19:11:09.727Z,77.20
2022-08-17T19:13:51.451Z,77.20
2022-08-17T19:16:54.643Z,77.50
2022-08-17T19:19:28.714Z,77.90
2022-08-17T19:22:11.960Z,78.40
2022-08-17T19:24:47.891Z,78.60
2022-08-17T19:27:21.918Z,78.70
2022-08-17T19:30:08.154Z,78.70
2022-08-17T19:32:35.911Z,79.40
2022-08-17T19:35:05.942Z,80.10
2022-08-17T19:37:41.794Z,81.20
2022-08-17T19:40:48.841Z,81.40
2022-08-17T19:43:22.782Z,82.20
2022-08-17T19:46:17.817Z,82.30
2022-08-17T19:49:00.970Z,82.70
2022-08-17T19:51:46.770Z,83.20
2022-08-17T19:54:31.386Z,83.70
2022-08-17T19:57:32.723Z,83.90
2022-08-17T20:00:12.817Z,84.30
2022-08-17T20:02:51.621Z,84.70
2022-08-17T20:05:27.926Z,84.20
2022-08-17T20:08:02.215Z,84.80
2022-08-17T20:10:41.356Z,84.30
2022-08-17T20:13:12.271Z,85.00
2022-08-17T20:15:42.941Z,85.20
2022-08-17T20:18:19.401Z,85.20
2022-08-17T20:21:01.277Z,86.30
2022-08-17T20:23:54.445Z,86.70
2022-08-17T20:26:57.972Z,87.00
2022-08-17T20:29:37.676Z,87.30
2022-08-17T20:32:16.812Z,88.00
2022-08-17T20:34:46.859Z,88.80
2022-08-17T20:37:13.727Z,89.10
2022-08-17T20:40:05.857Z,88.30
2022-08-17T20:42:33.963Z,89.60
2022-08-17T20:45:24.237Z,90.20
2022-08-17T20:48:22.154Z,90.10
2022-08-17T20:50:55.962Z,90.20
2022-08-17T20:53:47.545Z,90.30
2022-08-17T20:56:46.559Z,90.90
2022-08-17T20:59:25.996Z,91.10
2022-08-17T21:02:18.340Z,91.40
2022-08-17T21:04:52.942Z,91.70
2022-08-17T21:07:24.896Z,91.80
2022-08-17T21:09:52.323Z,91.90
2022-08-17T21:12:39.512Z,92.20
2022-08-17T21:15:20.903Z,92.40
2022-08-17T21:18:00.652Z,92.60
2022-08-17T21:21:01.258Z,92.50
2022-08-17T21:24:06.832Z,92.70
2022-08-17T21:26:50.491Z,92.60
2022-08-17T21:29:31.806Z,92.60
2022-08-17T21:31:59.722Z,92.70
2022-08-17T21:34:29.948Z,93.60
2022-08-17T21:37:23.463Z,94.30
2022-08-17T21:40:19.203Z,95.50
2022-08-17T21:42:50.544Z,95.30
2022-08-17T21:45:27.383Z,95.80
2022-08-17T21:48:17.470Z,96.70
2022-08-17T21:50:57.165Z,97.30
2022-08-17T21:53:47.678Z,97.90
2022-08-17T21:56:41.226Z,98.70
2022-08-17T21:59:16.443Z,99.60
2022-08-17T22:01:43.511Z,99.90
2022-08-17T22:04:11.563Z,99.90
2022-08-17T22:06:41.196Z,99.90
2022-08-17T22:09:28.737Z,99.90
2022-08-17T22:12:06.682Z,99.90
2022-08-17T22:14:51.658Z,99.90
2022-08-17T22:17:27.600Z,99.90
2022-08-17T22:20:16.826Z,99.90
2022-08-17T22:23:04.999Z,99.90
2022-08-17T22:25:38.290Z,99.90
2022-08-17T22:28:08.060Z,99.90
2022-08-17T22:30:58.142Z,99.90
2022-08-17T22:33:43.796Z,99.90
2022-08-17T22:36:24.828Z,99.90
2022-08-17T22:38:56.666Z,99.90
2022-08-17T22:41:41.273Z,99.90
2022-08-17T22:44:28.247Z,99.90
2022-08-17T22:47:02.877Z,99.90
2022-08-17T22:49:57.721Z,99.90
2022-08-17T22:52:58.824Z,99.90
2022-08-17T22:55:45.472Z,99.90
2022-08-17T22:58:34.717Z,99.90
2022-08-17T23:01:39.068Z,99.90
2022-08-17T23:04:09.442Z,99.90
2022-08-17T23:06:38.354Z,99.90
2022-08-17T23:09:07.105Z,99.90
2022-08-17T23:11:46.147Z,99.90
2022-08-17T23:14:19.684Z,99.90
2022-08-17T23:16:48.714Z,99.90
2022-08-17T23:19:18.326Z,99.90
2022-08-17T23:21:45.772Z,99.90
2022-08-17T23:24:21.653Z,99.90
2022-08-17T23:26:48.580Z,99.90
2022-08-17T23:29:15.544Z,99.90
2022-08-17T23:31:42.417Z,99.90
2022-08-17T23:34:12.668Z,99.90
2022-08-17T23:36:39.630Z,99.90
2022-08-17T23:39:07.142Z,99.90
2022-08-17T23:41:37.890Z,99.90
2022-08-17T23:44:06.396Z,99.90
2022-08-17T23:46:34.598Z,99.90
2022-08-17T23:49:01.615Z,99.90
2022-08-17T23:51:33.465Z,99.90
2022-08-17T23:54:12.631Z,99.90
2022-08-17T23:56:46.684Z,99.90
2022-08-17T23:59:19.449Z,99.90
